Time;durP1;ratioP1;P1;durP2;ratioP2;P2;SDS_P1;SDS_P2;PMS_P1;PMS_P2;Temp;Humidity;BMP_temperature;BMP_pressure;BME280_temperature;BME280_humidity;BME280_pressure;Samples;Min_cycle;Max_cycle;Signal;HPM_P1;HPM_P2
2023/06/11 00:00:52;;;;;;;6.37;2.77;;;17.90;99.90;;;;;;5034759;28;20226;-73
2023/06/11 00:03:21;;;;;;;7.13;3.57;;;18.50;99.90;;;;;;5068690;28;20235;-72
2023/06/11 00:05:48;;;;;;;8.07;2.97;;;19.10;99.90;;;;;;5060545;28;20268;-72
2023/06/11 00:08:16;;;;;;;10.87;2.80;;;19.00;99.90;;;;;;5057220;28;20184;-72
2023/06/11 00:10:44;;;;;;;8.57;3.63;;;19.00;99.90;;;;;;5061051;28;20177;-70
2023/06/11 00:13:12;;;;;;;5.13;2.50;;;18.80;99.90;;;;;;5051392;28;20181;-71
2023/06/11 00:15:40;;;;;;;6.50;3.10;;;19.30;99.90;;;;;;5055880;28;20177;-73
2023/06/11 00:18:07;;;;;;;7.27;2.97;;;19.10;99.90;;;;;;5053205;28;20231;-72
2023/06/11 00:20:41;;;;;;;5.50;2.33;;;19.50;99.90;;;;;;5075060;28;20179;-71
2023/06/11 00:23:09;;;;;;;5.77;2.20;;;18.50;99.90;;;;;;5074548;28;20195;-71
2023/06/11 00:25:37;;;;;;;5.00;2.33;;;19.00;99.90;;;;;;5075048;28;20641;-71
2023/06/11 00:28:06;;;;;;;8.43;2.63;;;18.90;99.90;;;;;;5075066;28;20186;-71
2023/06/11 00:30:34;;;;;;;6.13;2.23;;;19.10;99.90;;;;;;5074885;28;20181;-74
2023/06/11 00:33:03;;;;;;;5.40;2.13;;;19.20;99.90;;;;;;5075531;28;20672;-71
2023/06/11 00:35:30;;;;;;;5.90;2.57;;;19.40;99.90;;;;;;5075235;28;20184;-72
2023/06/11 00:37:58;;;;;;;6.63;2.47;;;20.10;99.90;;;;;;5074904;28;20562;-72
2023/06/11 00:40:26;;;;;;;6.07;2.17;;;20.70;99.90;;;;;;5075090;28;20693;-71
2023/06/11 00:42:54;;;;;;;3.70;2.00;;;21.40;99.90;;;;;;5075329;28;20222;-72
2023/06/11 00:45:24;;;;;;;6.10;1.93;;;21.40;99.90;;;;;;5091158;28;20337;-69
2023/06/11 00:47:51;;;;;;;5.50;2.10;;;21.70;98.40;;;;;;5075149;28;20262;-71
2023/06/11 00:50:19;;;;;;;4.40;2.10;;;21.90;98.10;;;;;;5075349;28;20183;-71
2023/06/11 00:52:47;;;;;;;4.47;2.07;;;21.70;97.50;;;;;;5075183;28;20187;-70
2023/06/11 00:58:49;;;;;;;3.90;1.83;;;21.70;94.90;;;;;;5064366;28;20186;-71
2023/06/11 01:01:29;;;;;;;5.10;2.00;;;21.80;92.60;;;;;;5049918;28;20223;-70
2023/06/11 01:04:00;;;;;;;6.03;1.63;;;21.70;92.80;;;;;;5074421;28;20198;-73
2023/06/11 01:06:33;;;;;;;5.23;2.23;;;22.40;92.10;;;;;;5055225;28;20628;-70
2023/06/11 01:09:03;;;;;;;2.97;1.70;;;21.70;92.80;;;;;;5073073;28;20283;-69
2023/06/11 01:11:34;;;;;;;4.90;2.03;;;21.20;94.30;;;;;;5073057;28;20657;-72
2023/06/11 01:14:02;;;;;;;6.07;1.77;;;21.10;94.10;;;;;;5072733;28;20295;-73
2023/06/11 01:16:42;;;;;;;8.63;2.07;;;21.00;95.70;;;;;;5073208;28;20175;-72
2023/06/11 01:19:46;;;;;;;4.40;2.20;;;21.20;94.20;;;;;;5072718;28;20231;-70
2023/06/11 01:22:31;;;;;;;2.53;1.50;;;21.40;95.40;;;;;;5060082;28;20220;-72
2023/06/11 01:25:16;;;;;;;3.07;1.97;;;21.70;92.30;;;;;;5057609;28;20173;-72
2023/06/11 01:28:20;;;;;;;3.37;1.97;;;22.30;90.70;;;;;;5052395;28;20200;-70
2023/06/11 01:34:10;;;;;;;5.00;2.30;;;23.00;83.00;;;;;;5059260;28;20289;-73
2023/06/11 01:36:39;;;;;;;5.70;2.27;;;23.20;80.20;;;;;;5054218;28;20184;-72
2023/06/11 01:39:08;;;;;;;7.20;2.60;;;23.50;75.70;;;;;;5052409;28;20208;-73
2023/06/11 01:44:58;;;;;;;6.40;2.40;;;23.20;77.80;;;;;;5050408;28;20187;-73
2023/06/11 01:47:27;;;;;;;4.87;2.20;;;22.80;71.30;;;;;;5052435;28;20539;-73
2023/06/11 01:49:55;;;;;;;5.50;2.20;;;22.50;73.60;;;;;;5052349;28;20180;-71
2023/06/11 01:52:24;;;;;;;4.23;2.27;;;22.80;78.10;;;;;;5062643;28;20288;-73
2023/06/11 01:54:52;;;;;;;5.07;2.53;;;22.40;69.10;;;;;;5053863;28;20224;-73
2023/06/11 01:57:20;;;;;;;5.20;3.00;;;22.60;72.70;;;;;;5068528;28;20318;-72
2023/06/11 01:59:47;;;;;;;7.43;4.47;;;23.00;75.50;;;;;;5072146;28;20184;-71
2023/06/11 02:02:16;;;;;;;10.63;6.47;;;22.90;73.40;;;;;;5067204;28;20282;-71
2023/06/11 02:04:43;;;;;;;11.77;6.80;;;22.70;75.50;;;;;;5052505;28;20176;-72
2023/06/11 02:07:11;;;;;;;13.83;7.47;;;23.10;74.00;;;;;;5032040;28;20199;-72
2023/06/11 02:09:39;;;;;;;14.87;8.53;;;23.30;69.60;;;;;;5042515;28;20181;-71
2023/06/11 02:12:07;;;;;;;15.07;7.33;;;22.80;72.80;;;;;;5054676;28;20645;-72
2023/06/11 02:14:35;;;;;;;10.80;6.77;;;22.90;72.80;;;;;;5071692;28;20186;-73
2023/06/11 02:17:03;;;;;;;11.93;7.03;;;22.70;62.40;;;;;;5071549;28;20218;-72
2023/06/11 02:19:30;;;;;;;11.40;6.70;;;22.70;65.50;;;;;;5071786;28;20510;-72
2023/06/11 02:21:58;;;;;;;14.13;8.53;;;22.90;66.30;;;;;;5066650;28;20211;-74
2023/06/11 02:24:26;;;;;;;19.10;10.73;;;23.30;62.30;;;;;;5051669;28;20382;-73
2023/06/11 02:26:54;;;;;;;21.40;10.70;;;23.70;56.90;;;;;;5051625;28;20176;-70
2023/06/11 02:29:21;;;;;;;19.37;11.00;;;22.90;57.20;;;;;;5051663;28;20658;-73
2023/06/11 02:31:49;;;;;;;17.23;10.67;;;22.20;63.60;;;;;;5052978;28;20199;-69
2023/06/11 02:34:17;;;;;;;14.97;7.93;;;22.10;64.00;;;;;;5057363;28;20189;-69
2023/06/11 02:36:45;;;;;;;11.40;5.27;;;22.40;69.00;;;;;;5051065;28;20184;-72
2023/06/11 02:39:14;;;;;;;11.57;4.77;;;22.50;64.50;;;;;;5056516;28;20219;-71
2023/06/11 02:41:42;;;;;;;9.90;4.20;;;22.90;61.40;;;;;;5068623;28;20201;-72
2023/06/11 02:44:10;;;;;;;9.47;3.87;;;22.80;61.50;;;;;;5051311;28;20188;-71
2023/06/11 02:46:37;;;;;;;9.93;3.90;;;22.50;61.40;;;;;;5060502;28;20238;-70
2023/06/11 02:49:05;;;;;;;8.80;4.23;;;22.00;62.20;;;;;;5063291;28;20810;-69
2023/06/11 02:51:33;;;;;;;11.13;4.07;;;21.70;67.10;;;;;;5051752;28;20252;-69
2023/06/11 02:54:02;;;;;;;11.70;4.20;;;21.50;71.50;;;;;;5071052;28;20238;-68
2023/06/11 02:56:30;;;;;;;6.67;3.23;;;21.50;71.50;;;;;;5070661;28;20201;-70
2023/06/11 02:58:58;;;;;;;6.90;3.30;;;21.90;70.90;;;;;;5052824;28;20185;-69
2023/06/11 03:01:25;;;;;;;5.73;3.03;;;22.30;69.30;;;;;;5070443;28;20233;-68
2023/06/11 03:03:53;;;;;;;4.90;2.23;;;22.50;62.90;;;;;;5030936;28;20173;-69
2023/06/11 03:06:21;;;;;;;4.77;2.60;;;22.50;58.30;;;;;;5030915;28;20260;-70
2023/06/11 03:08:52;;;;;;;7.60;2.80;;;22.40;59.20;;;;;;5033148;28;20178;-70
2023/06/11 03:11:19;;;;;;;4.57;1.83;;;21.80;63.80;;;;;;5033018;28;20672;-70
2023/06/11 03:13:50;;;;;;;4.53;2.30;;;22.10;64.10;;;;;;5069977;28;20191;-70
2023/06/11 03:16:17;;;;;;;6.67;2.17;;;21.80;62.50;;;;;;5070972;28;20267;-69
2023/06/11 03:18:45;;;;;;;6.77;2.43;;;21.60;64.30;;;;;;5070702;28;20334;-70
2023/06/11 03:21:13;;;;;;;5.00;2.63;;;21.70;63.40;;;;;;5070848;28;20246;-69
2023/06/11 03:23:41;;;;;;;6.13;2.50;;;22.30;68.50;;;;;;5052230;28;20615;-69
2023/06/11 03:26:08;;;;;;;8.20;2.83;;;22.80;58.20;;;;;;5050828;28;20177;-68
2023/06/11 03:28:35;;;;;;;6.73;2.43;;;22.90;59.30;;;;;;5050599;28;20181;-68
2023/06/11 03:31:03;;;;;;;5.67;2.13;;;22.70;53.80;;;;;;5032783;28;20180;-68
2023/06/11 03:33:30;;;;;;;4.70;1.53;;;22.50;56.00;;;;;;5070526;28;20179;-70
2023/06/11 03:35:57;;;;;;;6.57;2.13;;;22.30;58.70;;;;;;5055536;28;20202;-70
2023/06/11 03:38:25;;;;;;;4.47;2.23;;;22.40;57.20;;;;;;5050234;28;20185;-69
2023/06/11 03:40:52;;;;;;;6.53;2.77;;;22.70;59.00;;;;;;5050656;28;20219;-70
2023/06/11 03:43:20;;;;;;;4.27;1.80;;;22.70;55.20;;;;;;5050710;28;20188;-70
2023/06/11 03:45:47;;;;;;;3.20;1.73;;;22.80;58.90;;;;;;5063659;28;20270;-70
2023/06/11 03:48:14;;;;;;;10.60;2.67;;;22.90;56.60;;;;;;5066754;28;20202;-70
2023/06/11 03:50:42;;;;;;;10.00;2.33;;;23.00;54.50;;;;;;5050033;28;20180;-69
2023/06/11 03:53:09;;;;;;;5.00;1.80;;;22.50;55.00;;;;;;5050810;28;20264;-70
2023/06/11 03:55:37;;;;;;;5.03;1.80;;;22.40;56.20;;;;;;5050882;28;20199;-69
2023/06/11 03:58:04;;;;;;;5.90;2.00;;;22.50;54.60;;;;;;5050385;28;20287;-70
2023/06/11 04:00:32;;;;;;;5.77;2.50;;;22.90;57.00;;;;;;5050438;28;20198;-71
2023/06/11 04:03:00;;;;;;;3.77;2.00;;;23.10;52.30;;;;;;5032212;28;20216;-70
2023/06/11 04:05:27;;;;;;;3.70;1.57;;;23.20;53.50;;;;;;5063835;28;20624;-70
2023/06/11 04:07:55;;;;;;;7.47;2.37;;;22.40;51.60;;;;;;5052291;28;20179;-69
2023/06/11 04:10:22;;;;;;;3.50;1.57;;;22.10;51.90;;;;;;5070108;28;20167;-70
2023/06/11 04:12:53;;;;;;;6.50;3.20;;;22.10;53.60;;;;;;5061362;28;20587;-70
2023/06/11 04:15:21;;;;;;;5.63;2.43;;;22.50;51.50;;;;;;5062344;28;20215;-70
2023/06/11 04:17:49;;;;;;;3.93;1.43;;;22.50;51.30;;;;;;5065159;28;20223;-70
2023/06/11 04:20:16;;;;;;;4.00;1.90;;;22.50;50.40;;;;;;5032274;28;20188;-70
2023/06/11 04:22:43;;;;;;;4.23;1.70;;;22.50;49.80;;;;;;5050196;28;20212;-69
2023/06/11 04:25:12;;;;;;;4.43;1.90;;;22.60;51.10;;;;;;5050025;28;20183;-70
2023/06/11 04:27:39;;;;;;;7.77;1.90;;;22.20;50.50;;;;;;5051943;28;20189;-70
2023/06/11 04:30:09;;;;;;;6.80;1.47;;;22.10;52.00;;;;;;5070136;28;20399;-70
2023/06/11 04:32:36;;;;;;;5.87;1.60;;;22.00;52.40;;;;;;5070186;28;20191;-70
2023/06/11 04:35:04;;;;;;;5.63;2.13;;;22.00;51.10;;;;;;5069906;28;20285;-70
2023/06/11 04:37:38;;;;;;;5.90;2.17;;;22.10;52.00;;;;;;5068744;28;20567;-70
2023/06/11 04:40:10;;;;;;;3.90;1.70;;;21.70;53.80;;;;;;5050120;28;20234;-69
2023/06/11 04:42:41;;;;;;;2.80;1.40;;;22.00;51.10;;;;;;5031985;28;20226;-69
2023/06/11 04:45:10;;;;;;;3.87;1.50;;;22.00;52.40;;;;;;5049374;28;20186;-70
2023/06/11 04:47:38;;;;;;;6.80;1.60;;;22.20;49.70;;;;;;5067235;28;20682;-69
2023/06/11 04:50:06;;;;;;;4.10;1.57;;;22.30;50.30;;;;;;5041920;28;20176;-69
2023/06/11 04:52:42;;;;;;;5.37;1.73;;;22.10;52.60;;;;;;5066535;28;20192;-70
2023/06/11 04:55:11;;;;;;;5.73;1.63;;;22.30;51.00;;;;;;5069887;28;20275;-70
2023/06/11 04:57:39;;;;;;;3.90;1.40;;;22.30;50.20;;;;;;5068846;28;20180;-71
2023/06/11 05:00:08;;;;;;;4.50;1.90;;;22.10;50.40;;;;;;5067182;28;20255;-72
2023/06/11 05:02:38;;;;;;;8.50;1.67;;;21.90;52.90;;;;;;5073360;28;20216;-71
2023/06/11 05:05:06;;;;;;;4.77;1.30;;;22.00;52.50;;;;;;5073342;28;20196;-71
2023/06/11 05:07:33;;;;;;;5.50;1.70;;;21.80;53.20;;;;;;5071712;28;20168;-71
2023/06/11 05:10:01;;;;;;;7.40;1.70;;;21.80;54.70;;;;;;5054305;28;20252;-72
2023/06/11 05:12:31;;;;;;;6.60;2.10;;;21.70;52.90;;;;;;5053186;28;20188;-70
2023/06/11 05:15:02;;;;;;;5.83;1.83;;;21.40;54.80;;;;;;5053081;28;20704;-70
2023/06/11 05:17:29;;;;;;;5.40;2.03;;;21.40;54.70;;;;;;5057192;28;20277;-68
2023/06/11 05:19:57;;;;;;;5.57;1.57;;;21.40;56.00;;;;;;5073339;28;20191;-72
2023/06/11 05:22:24;;;;;;;4.97;1.60;;;21.20;57.00;;;;;;5072944;28;20289;-72
2023/06/11 05:24:52;;;;;;;7.27;1.57;;;21.00;57.00;;;;;;5072811;28;20520;-71
2023/06/11 05:27:21;;;;;;;4.23;1.73;;;20.80;60.30;;;;;;5072922;28;20578;-71
2023/06/11 05:29:48;;;;;;;5.17;1.73;;;20.90;62.10;;;;;;5073019;28;20180;-72
2023/06/11 05:32:17;;;;;;;3.13;1.70;;;21.00;59.50;;;;;;5072812;28;20203;-70
2023/06/11 05:34:49;;;;;;;6.33;1.80;;;20.60;59.60;;;;;;5078854;28;20212;-71
2023/06/11 05:37:17;;;;;;;4.60;1.50;;;20.40;62.80;;;;;;5074998;28;20187;-71
2023/06/11 05:39:45;;;;;;;3.90;1.50;;;20.00;66.30;;;;;;5075089;28;20187;-70
2023/06/11 05:42:13;;;;;;;4.83;1.60;;;19.50;70.20;;;;;;5073274;28;20217;-70
2023/06/11 05:44:40;;;;;;;4.80;1.70;;;19.40;72.90;;;;;;5074679;28;20172;-70
2023/06/11 05:47:08;;;;;;;5.37;2.17;;;19.00;78.90;;;;;;5073722;28;20183;-72
2023/06/11 05:49:35;;;;;;;6.57;1.90;;;18.80;82.90;;;;;;5073317;28;20184;-71
2023/06/11 05:52:03;;;;;;;8.03;2.03;;;18.50;86.20;;;;;;5073014;28;20225;-70
2023/06/11 05:54:30;;;;;;;7.67;2.30;;;18.30;91.40;;;;;;5073394;28;20172;-71
2023/06/11 05:56:58;;;;;;;7.17;1.77;;;18.00;94.50;;;;;;5072621;28;20183;-72
2023/06/11 05:59:25;;;;;;;5.60;1.87;;;17.80;97.00;;;;;;5072514;28;20866;-71
2023/06/11 06:01:53;;;;;;;6.47;1.60;;;17.70;99.90;;;;;;5072248;28;20214;-71
2023/06/11 06:04:20;;;;;;;6.13;1.60;;;17.70;99.90;;;;;;5072169;28;20172;-73
2023/06/11 06:06:47;;;;;;;3.07;1.70;;;17.50;99.90;;;;;;5072204;28;20263;-69
2023/06/11 06:09:15;;;;;;;4.93;2.00;;;17.30;99.90;;;;;;5072322;28;20212;-68
2023/06/11 06:11:42;;;;;;;4.27;2.03;;;17.20;99.90;;;;;;5071337;28;20172;-69
2023/06/11 06:14:10;;;;;;;4.47;2.17;;;17.10;99.90;;;;;;5071953;28;20207;-71
2023/06/11 06:16:37;;;;;;;7.17;2.07;;;17.00;99.90;;;;;;5072056;28;20180;-70
2023/06/11 06:19:05;;;;;;;4.60;1.50;;;16.90;99.90;;;;;;5053583;28;20231;-70
2023/06/11 06:21:32;;;;;;;4.03;1.77;;;16.90;99.90;;;;;;5071936;28;20675;-71
2023/06/11 06:24:00;;;;;;;4.13;1.80;;;16.80;99.90;;;;;;5071653;28;20183;-69
2023/06/11 06:26:28;;;;;;;4.70;1.90;;;16.80;99.90;;;;;;5071744;28;20172;-67
2023/06/11 06:28:55;;;;;;;6.47;2.27;;;16.80;99.90;;;;;;5059209;28;20208;-73
2023/06/11 06:31:24;;;;;;;6.30;2.00;;;16.90;99.90;;;;;;5067257;28;20191;-69
2023/06/11 06:33:52;;;;;;;3.67;1.67;;;16.70;99.90;;;;;;5068759;28;20632;-69
2023/06/11 06:36:20;;;;;;;3.70;1.60;;;16.70;99.90;;;;;;5051717;28;20172;-71
2023/06/11 06:38:48;;;;;;;3.87;1.73;;;16.50;99.90;;;;;;5051584;28;20183;-71
2023/06/11 06:41:15;;;;;;;3.43;1.67;;;16.20;99.90;;;;;;5054743;28;20222;-71
2023/06/11 06:43:42;;;;;;;3.80;1.70;;;15.90;99.90;;;;;;5070718;28;20178;-69
2023/06/11 06:46:10;;;;;;;3.83;1.70;;;15.80;99.90;;;;;;5049152;28;20195;-70
2023/06/11 06:48:38;;;;;;;5.17;1.87;;;15.60;99.90;;;;;;5041839;28;20180;-73
2023/06/11 06:51:05;;;;;;;4.70;1.80;;;15.50;99.90;;;;;;5060421;28;20176;-68
2023/06/11 06:53:32;;;;;;;6.53;2.70;;;15.40;99.90;;;;;;5051280;28;20659;-68
2023/06/11 06:56:00;;;;;;;6.73;2.70;;;15.30;99.90;;;;;;5051339;28;20180;-71
2023/06/11 06:58:30;;;;;;;7.73;2.40;;;15.10;99.90;;;;;;5060953;28;20185;-72
2023/06/11 07:00:57;;;;;;;6.13;2.57;;;14.90;99.90;;;;;;5053308;28;20576;-67
2023/06/11 07:03:25;;;;;;;6.77;2.60;;;14.70;99.90;;;;;;5070706;28;20234;-71
2023/06/11 07:05:52;;;;;;;4.53;2.40;;;14.50;99.90;;;;;;5052693;28;20185;-69
2023/06/11 07:08:20;;;;;;;5.53;2.50;;;14.40;99.90;;;;;;5059805;28;20259;-70
2023/06/11 07:10:53;;;;;;;6.13;2.90;;;14.30;99.90;;;;;;5070911;28;20354;-70
2023/06/11 07:13:21;;;;;;;6.53;3.27;;;14.10;99.90;;;;;;5071007;28;20179;-69
2023/06/11 07:15:52;;;;;;;7.97;2.70;;;14.00;99.90;;;;;;5070954;28;20266;-67
2023/06/11 07:18:19;;;;;;;6.13;2.83;;;13.90;99.90;;;;;;5061677;28;20344;-70
2023/06/11 07:20:46;;;;;;;6.87;2.70;;;13.80;99.90;;;;;;5062789;28;20187;-67
2023/06/11 07:23:14;;;;;;;6.93;3.07;;;13.80;99.90;;;;;;5070149;28;20225;-70
2023/06/11 07:25:43;;;;;;;9.20;3.07;;;13.70;99.90;;;;;;5070452;28;20597;-70
2023/06/11 07:28:10;;;;;;;10.30;3.30;;;13.50;99.90;;;;;;5068949;28;20179;-67
2023/06/11 07:30:38;;;;;;;8.73;3.30;;;13.50;99.90;;;;;;5070089;28;20179;-70
2023/06/11 07:33:05;;;;;;;8.43;3.33;;;13.40;99.90;;;;;;5035832;28;20226;-70
2023/06/11 07:35:33;;;;;;;6.77;3.03;;;13.30;99.90;;;;;;5050423;28;20179;-71
2023/06/11 07:38:00;;;;;;;8.67;3.37;;;13.20;99.90;;;;;;5050099;28;20214;-71
2023/06/11 07:40:27;;;;;;;11.80;4.07;;;13.10;99.90;;;;;;5032344;28;20246;-68
2023/06/11 07:42:55;;;;;;;8.10;4.10;;;13.00;99.90;;;;;;5049951;28;20212;-68
2023/06/11 07:45:22;;;;;;;11.87;4.00;;;13.00;99.90;;;;;;5050159;28;20176;-68
2023/06/11 07:47:50;;;;;;;8.83;4.60;;;12.90;99.90;;;;;;5050128;28;20215;-70
2023/06/11 07:50:17;;;;;;;8.03;4.20;;;12.90;99.90;;;;;;5050040;28;20180;-70
2023/06/11 07:52:45;;;;;;;10.43;4.63;;;12.80;99.90;;;;;;5049867;28;20699;-71
2023/06/11 07:55:12;;;;;;;7.50;4.00;;;12.70;99.90;;;;;;5049962;28;20178;-69
2023/06/11 07:57:39;;;;;;;12.20;4.70;;;12.60;99.90;;;;;;5050273;28;20262;-70
2023/06/11 08:00:12;;;;;;;9.73;3.97;;;12.60;99.90;;;;;;5049695;28;20704;-70
2023/06/11 08:02:44;;;;;;;11.50;4.67;;;12.50;99.90;;;;;;5050049;28;20210;-71
2023/06/11 08:05:17;;;;;;;17.03;6.37;;;12.40;99.90;;;;;;5049483;28;20208;-67
2023/06/11 08:07:45;;;;;;;17.13;6.50;;;12.40;99.90;;;;;;5050029;28;20197;-71
2023/06/11 08:10:12;;;;;;;9.03;4.90;;;12.30;99.90;;;;;;5049952;28;20172;-71
2023/06/11 08:12:40;;;;;;;9.17;5.27;;;12.20;99.90;;;;;;5049955;28;20707;-69
2023/06/11 08:15:08;;;;;;;10.23;5.17;;;12.20;99.90;;;;;;5050189;28;20191;-69
2023/06/11 08:17:35;;;;;;;8.10;5.30;;;12.10;99.90;;;;;;5054338;28;20595;-69
2023/06/11 08:20:06;;;;;;;11.97;5.70;;;12.00;99.90;;;;;;5051879;28;20190;-71
2023/06/11 08:22:34;;;;;;;8.30;4.90;;;12.00;99.90;;;;;;5069863;28;20585;-68
2023/06/11 08:25:01;;;;;;;10.13;4.97;;;11.90;99.90;;;;;;5069447;28;20598;-68
2023/06/11 08:27:28;;;;;;;7.90;4.60;;;11.80;99.90;;;;;;5069533;28;20183;-70
2023/06/11 08:29:56;;;;;;;10.93;5.57;;;11.70;99.90;;;;;;5069812;28;20185;-69
2023/06/11 08:32:23;;;;;;;6.93;4.63;;;11.70;99.90;;;;;;5051753;28;20190;-70
2023/06/11 08:34:50;;;;;;;10.40;5.00;;;11.70;99.90;;;;;;5051947;28;20197;-69
2023/06/11 08:37:18;;;;;;;8.67;5.43;;;11.60;99.90;;;;;;5055216;28;20188;-68
2023/06/11 08:39:45;;;;;;;8.47;5.33;;;11.60;99.90;;;;;;5073694;28;20175;-68
2023/06/11 08:42:13;;;;;;;11.13;5.30;;;11.50;99.90;;;;;;5055362;28;20313;-70
2023/06/11 08:44:41;;;;;;;11.23;5.97;;;11.50;99.90;;;;;;5073296;28;20179;-69
2023/06/11 08:47:10;;;;;;;11.07;6.17;;;11.40;99.90;;;;;;5073159;28;20180;-71
2023/06/11 08:49:41;;;;;;;10.53;6.30;;;11.40;99.90;;;;;;5073529;28;20209;-67
2023/06/11 08:52:08;;;;;;;16.47;6.80;;;11.30;99.90;;;;;;5073031;28;20174;-68
2023/06/11 08:54:37;;;;;;;10.20;6.37;;;11.30;99.90;;;;;;5073683;28;20186;-69
2023/06/11 08:57:07;;;;;;;9.90;5.70;;;11.20;99.90;;;;;;5073387;28;20186;-68
2023/06/11 08:59:34;;;;;;;11.53;6.07;;;11.20;99.90;;;;;;5073513;28;20180;-70
2023/06/11 09:02:01;;;;;;;17.27;6.77;;;11.20;99.90;;;;;;5073372;28;20671;-71
2023/06/11 09:04:29;;;;;;;12.43;6.93;;;11.10;99.90;;;;;;5073260;28;20653;-69
2023/06/11 09:07:01;;;;;;;15.73;7.20;;;11.10;99.90;;;;;;5073225;28;20666;-70
2023/06/11 09:09:28;;;;;;;14.87;7.87;;;11.00;99.90;;;;;;5073368;28;20754;-71
2023/06/11 09:11:55;;;;;;;16.27;7.90;;;10.90;99.90;;;;;;5073132;28;20180;-69
2023/06/11 09:14:23;;;;;;;12.03;6.97;;;10.90;99.90;;;;;;5072947;28;20190;-70
2023/06/11 09:16:50;;;;;;;14.17;7.03;;;10.90;99.90;;;;;;5055140;28;20558;-69
2023/06/11 09:19:19;;;;;;;13.37;7.80;;;10.80;99.90;;;;;;5072179;28;20235;-69
2023/06/11 09:21:56;;;;;;;15.47;7.57;;;10.80;99.90;;;;;;5065991;28;20226;-72
2023/06/11 09:24:25;;;;;;;17.53;8.53;;;10.70;99.90;;;;;;5072947;28;20178;-70
2023/06/11 09:26:57;;;;;;;16.90;8.23;;;10.60;99.90;;;;;;5072690;28;20190;-73
2023/06/11 09:29:27;;;;;;;15.77;7.63;;;10.60;99.90;;;;;;5073069;28;20390;-71
2023/06/11 09:32:08;;;;;;;14.23;7.30;;;10.60;99.90;;;;;;5072856;28;20175;-72
2023/06/11 09:34:36;;;;;;;17.83;7.57;;;10.50;99.90;;;;;;5072792;28;20179;-71
2023/06/11 09:37:04;;;;;;;13.47;8.17;;;10.40;99.90;;;;;;5072850;28;20627;-72
2023/06/11 09:39:31;;;;;;;17.33;8.37;;;10.40;99.90;;;;;;5058927;28;20212;-72
2023/06/11 09:41:59;;;;;;;14.90;8.13;;;10.40;99.90;;;;;;5072266;28;20221;-69
2023/06/11 09:44:27;;;;;;;12.23;8.00;;;10.30;99.90;;;;;;5072553;28;20773;-72
2023/06/11 09:46:55;;;;;;;18.13;8.73;;;10.30;99.90;;;;;;5071713;28;20174;-70
2023/06/11 09:49:24;;;;;;;16.73;8.57;;;10.20;99.90;;;;;;5059292;28;20184;-71
2023/06/11 09:51:54;;;;;;;19.90;9.93;;;10.20;99.90;;;;;;5052667;28;20925;-71
2023/06/11 09:54:22;;;;;;;14.07;8.67;;;10.10;99.90;;;;;;5052304;28;20261;-71
2023/06/11 09:56:50;;;;;;;14.60;9.10;;;10.10;99.90;;;;;;5052492;28;20694;-72
2023/06/11 09:59:19;;;;;;;29.07;10.03;;;10.00;99.90;;;;;;5063931;28;20190;-72
2023/06/11 10:01:49;;;;;;;19.13;10.63;;;10.00;99.90;;;;;;5071988;28;20639;-68
2023/06/11 10:04:16;;;;;;;19.93;10.37;;;10.00;99.90;;;;;;5071647;28;20550;-71
2023/06/11 10:06:48;;;;;;;22.17;10.67;;;9.90;99.90;;;;;;5072262;28;20541;-70
2023/06/11 10:09:16;;;;;;;18.53;11.20;;;9.90;99.90;;;;;;5060575;28;20497;-68
2023/06/11 10:11:45;;;;;;;19.33;10.83;;;9.80;99.90;;;;;;5051979;28;20281;-71
2023/06/11 10:14:20;;;;;;;21.07;10.63;;;9.80;99.90;;;;;;5052103;28;20655;-73
2023/06/11 10:16:56;;;;;;;16.57;11.00;;;9.80;99.90;;;;;;5053793;28;20181;-68
2023/06/11 10:19:33;;;;;;;19.87;11.27;;;9.70;99.90;;;;;;5053137;28;20217;-72
2023/06/11 10:22:02;;;;;;;20.73;12.57;;;9.60;99.90;;;;;;5053188;28;20212;-71
2023/06/11 10:24:30;;;;;;;22.00;12.80;;;9.60;99.90;;;;;;5053059;28;20186;-70
2023/06/11 10:27:17;;;;;;;24.47;13.20;;;9.60;99.90;;;;;;5053082;28;20186;-73
2023/06/11 10:29:48;;;;;;;20.23;12.63;;;9.50;99.90;;;;;;5053496;28;20183;-72
2023/06/11 10:32:22;;;;;;;25.57;12.90;;;9.50;99.90;;;;;;5053342;28;20182;-70
2023/06/11 10:35:03;;;;;;;19.57;12.33;;;9.50;99.90;;;;;;5053635;28;20265;-68
2023/06/11 10:37:37;;;;;;;20.93;13.00;;;9.40;99.90;;;;;;5041918;28;20177;-70
2023/06/11 10:40:07;;;;;;;24.23;13.30;;;9.40;99.90;;;;;;5053304;28;20534;-69
2023/06/11 10:42:40;;;;;;;30.93;18.03;;;9.40;99.90;;;;;;5053360;28;20288;-71
2023/06/11 10:45:10;;;;;;;28.60;16.67;;;9.40;99.90;;;;;;5053242;28;20251;-68
2023/06/11 10:47:51;;;;;;;27.60;16.33;;;9.30;99.90;;;;;;5052508;28;20549;-71
2023/06/11 10:50:30;;;;;;;26.57;15.93;;;9.30;99.90;;;;;;5052839;28;20196;-71
2023/06/11 10:52:59;;;;;;;21.30;15.43;;;9.20;99.90;;;;;;5053268;28;20186;-68
2023/06/11 10:55:29;;;;;;;27.60;16.73;;;9.20;99.90;;;;;;5035565;28;20586;-70
2023/06/11 10:57:57;;;;;;;28.83;18.10;;;9.20;99.90;;;;;;5052792;28;20566;-69
2023/06/11 11:00:28;;;;;;;30.30;18.20;;;9.20;99.90;;;;;;5052767;28;20181;-71
2023/06/11 11:02:57;;;;;;;23.50;15.57;;;9.20;99.90;;;;;;5052625;28;20235;-71
2023/06/11 11:05:28;;;;;;;24.97;17.57;;;9.10;99.90;;;;;;5052306;28;20182;-72
2023/06/11 11:07:56;;;;;;;26.23;16.90;;;9.10;99.90;;;;;;5052924;28;20193;-71
2023/06/11 11:10:27;;;;;;;31.33;17.93;;;9.00;99.90;;;;;;5035211;28;20178;-70
2023/06/11 11:12:55;;;;;;;28.40;18.57;;;9.00;99.90;;;;;;5053241;28;20537;-70
2023/06/11 11:15:23;;;;;;;28.70;17.83;;;9.00;99.90;;;;;;5052804;28;20208;-70
2023/06/11 11:17:50;;;;;;;32.90;17.90;;;8.90;99.90;;;;;;5052412;28;20216;-68
2023/06/11 11:20:19;;;;;;;26.27;16.93;;;8.90;99.90;;;;;;5052856;28;20186;-69
2023/06/11 11:22:55;;;;;;;24.37;16.63;;;8.90;99.90;;;;;;5058387;28;20489;-71
2023/06/11 11:25:32;;;;;;;25.47;14.63;;;8.90;99.90;;;;;;5072606;28;20714;-72
2023/06/11 11:27:59;;;;;;;23.10;14.03;;;8.90;99.90;;;;;;5072585;28;20208;-69
2023/06/11 11:30:28;;;;;;;24.37;15.07;;;8.90;99.90;;;;;;5072227;28;20189;-70
2023/06/11 11:32:56;;;;;;;26.87;15.70;;;8.80;99.90;;;;;;5072916;28;20173;-68
2023/06/11 11:35:26;;;;;;;22.57;15.13;;;8.70;99.90;;;;;;5072695;28;20195;-73
2023/06/11 11:37:55;;;;;;;24.77;16.00;;;8.70;99.90;;;;;;5071345;28;20181;-70
2023/06/11 11:40:23;;;;;;;26.30;15.77;;;8.70;99.90;;;;;;5054412;28;20238;-70
2023/06/11 11:42:53;;;;;;;32.20;16.97;;;8.70;99.90;;;;;;5071567;28;20260;-73
2023/06/11 11:45:22;;;;;;;26.87;16.47;;;8.60;99.90;;;;;;5072240;28;20174;-71
2023/06/11 11:47:51;;;;;;;27.97;17.00;;;8.50;99.90;;;;;;5071863;28;20181;-69
2023/06/11 11:50:27;;;;;;;29.37;17.17;;;8.50;99.90;;;;;;5072523;28;20170;-73
2023/06/11 11:53:13;;;;;;;23.60;15.90;;;8.50;99.90;;;;;;5072164;28;20662;-68
2023/06/11 11:55:45;;;;;;;26.10;16.43;;;8.40;99.90;;;;;;5072592;28;20177;-69
2023/06/11 11:58:15;;;;;;;28.00;16.40;;;8.40;99.90;;;;;;5071430;28;20187;-70
2023/06/11 12:00:52;;;;;;;26.30;15.83;;;8.30;99.90;;;;;;5071800;28;20203;-68
2023/06/11 12:03:21;;;;;;;28.17;15.97;;;8.30;99.90;;;;;;5063504;28;20207;-71
2023/06/11 12:06:08;;;;;;;23.17;15.00;;;8.30;99.90;;;;;;5072302;28;20186;-69
2023/06/11 12:08:37;;;;;;;27.53;16.47;;;8.30;99.90;;;;;;5072455;28;20177;-69
2023/06/11 12:11:06;;;;;;;27.73;17.33;;;8.30;99.90;;;;;;5074258;28;20176;-69
2023/06/11 12:13:34;;;;;;;25.13;16.13;;;8.30;99.90;;;;;;5070799;28;20230;-72
2023/06/11 12:16:01;;;;;;;31.73;16.20;;;8.20;99.90;;;;;;5056306;28;20578;-70
2023/06/11 12:18:29;;;;;;;28.17;16.80;;;8.20;99.90;;;;;;5040342;28;20226;-68
2023/06/11 12:20:56;;;;;;;26.50;16.03;;;8.20;99.90;;;;;;5056090;28;20668;-72
2023/06/11 12:23:23;;;;;;;26.10;16.80;;;8.10;99.90;;;;;;5056034;28;20244;-71
2023/06/11 12:25:51;;;;;;;25.73;16.50;;;8.10;99.90;;;;;;5055884;28;20186;-71
2023/06/11 12:28:21;;;;;;;27.07;16.73;;;8.10;99.90;;;;;;5055926;28;20659;-68
2023/06/11 12:30:48;;;;;;;27.90;17.23;;;8.10;99.90;;;;;;5055858;28;20175;-70
2023/06/11 12:33:16;;;;;;;21.83;16.07;;;8.00;99.90;;;;;;5057058;28;20181;-72
2023/06/11 12:35:43;;;;;;;25.47;16.43;;;8.00;99.90;;;;;;5056055;28;20210;-72
2023/06/11 12:38:11;;;;;;;29.23;16.73;;;8.10;99.90;;;;;;5056564;28;20188;-73
2023/06/11 12:40:39;;;;;;;22.23;15.80;;;8.00;99.90;;;;;;5063917;28;20175;-70
2023/06/11 12:43:06;;;;;;;25.80;16.57;;;7.90;99.90;;;;;;5070158;28;20218;-69
2023/06/11 12:45:37;;;;;;;27.80;16.17;;;7.90;99.90;;;;;;5065408;28;20174;-69
2023/06/11 12:48:05;;;;;;;26.43;16.07;;;7.90;99.90;;;;;;5065431;28;20647;-70
2023/06/11 12:50:33;;;;;;;25.63;16.13;;;7.90;99.90;;;;;;5061969;28;20267;-71
2023/06/11 12:53:01;;;;;;;28.67;16.63;;;7.90;99.90;;;;;;5063506;28;20275;-71
2023/06/11 12:55:29;;;;;;;26.80;17.30;;;7.80;99.90;;;;;;5060110;28;20610;-72
2023/06/11 12:57:56;;;;;;;24.97;16.13;;;7.80;99.90;;;;;;5074622;28;20545;-68
2023/06/11 13:00:25;;;;;;;27.03;16.70;;;7.80;99.90;;;;;;5075538;28;20281;-72
2023/06/11 13:02:53;;;;;;;27.67;16.57;;;7.70;99.90;;;;;;5061427;28;20212;-69